Time;durP1;ratioP1;P1;durP2;ratioP2;P2;SDS_P1;SDS_P2;PMS_P1;PMS_P2;Temp;Humidity;BMP_temperature;BMP_pressure;BME280_temperature;BME280_humidity;BME280_pressure;Samples;Min_cycle;Max_cycle;Signal;HPM_P1;HPM_P2
2022/04/13 00:01:54;;;;;;;24.00;12.00;;;;;;;4.45;65.94;101352.22;5019985;28;20034;-57
2022/04/13 00:04:19;;;;;;;21.48;10.60;;;;;;;4.35;66.44;101356.38;5017660;28;20083;-57
2022/04/13 00:06:44;;;;;;;23.98;12.38;;;;;;;4.33;66.38;101350.25;5025777;28;20037;-57
2022/04/13 00:09:10;;;;;;;24.92;12.65;;;;;;;4.23;67.04;101348.34;5024597;28;20462;-57
2022/04/13 00:11:36;;;;;;;20.55;10.98;;;;;;;4.22;67.03;101348.28;5022985;28;20045;-57
2022/04/13 00:14:02;;;;;;;21.33;11.88;;;;;;;4.21;67.08;101344.81;5019678;28;20038;-58
2022/04/13 00:16:28;;;;;;;24.83;11.10;;;;;;;4.18;67.07;101342.13;5027877;28;20079;-56
2022/04/13 00:18:53;;;;;;;21.45;10.45;;;;;;;4.17;67.06;101343.88;5022274;28;20025;-57
2022/04/13 00:21:19;;;;;;;30.73;13.75;;;;;;;4.14;67.14;101338.59;5028914;28;20037;-57
2022/04/13 00:23:44;;;;;;;23.77;10.60;;;;;;;4.08;67.61;101335.88;5029452;28;20045;-57
2022/04/13 00:26:09;;;;;;;25.23;14.05;;;;;;;4.06;67.50;101332.38;5019714;28;20026;-58
2022/04/13 00:28:36;;;;;;;23.83;11.43;;;;;;;4.05;67.56;101327.16;5025997;28;20461;-58
2022/04/13 00:31:01;;;;;;;23.95;11.23;;;;;;;4.04;67.43;101322.81;5020740;28;20041;-58
2022/04/13 00:33:27;;;;;;;25.98;12.55;;;;;;;3.99;67.48;101320.13;5023197;28;20048;-58
2022/04/13 00:35:55;;;;;;;30.63;13.23;;;;;;;3.93;67.63;101314.78;5030304;28;20424;-57
2022/04/13 00:38:22;;;;;;;26.48;14.07;;;;;;;3.95;67.52;101315.69;5019403;28;20163;-58
2022/04/13 00:40:49;;;;;;;29.80;14.73;;;;;;;3.87;67.99;101306.84;5013463;28;20050;-58
2022/04/13 00:43:14;;;;;;;26.60;14.68;;;;;;;3.84;67.97;101305.06;5018622;28;20126;-58
2022/04/13 00:45:47;;;;;;;26.98;13.75;;;;;;;3.86;67.59;101305.09;5030229;28;20068;-58
2022/04/13 00:48:34;;;;;;;25.17;12.77;;;;;;;3.81;67.52;101298.94;5035680;28;20037;-58
2022/04/13 00:50:59;;;;;;;21.75;11.52;;;;;;;3.75;67.66;101301.38;5017100;28;20041;-58
2022/04/13 00:53:26;;;;;;;24.77;12.00;;;;;;;3.81;67.24;101307.59;5028096;28;20084;-57
2022/04/13 00:55:56;;;;;;;23.02;11.93;;;;;;;3.82;67.53;101308.47;5027090;28;20038;-58
2022/04/13 00:58:24;;;;;;;26.27;12.68;;;;;;;3.89;67.16;101311.22;5021992;28;20060;-58
2022/04/13 01:00:50;;;;;;;27.80;13.60;;;;;;;3.91;66.77;101300.84;5018474;28;20022;-56
2022/04/13 01:03:21;;;;;;;30.92;13.48;;;;;;;3.95;66.54;101300.97;5031278;28;20025;-58
2022/04/13 01:05:48;;;;;;;29.33;13.95;;;;;;;3.97;66.48;101300.13;5017587;28;20116;-56
2022/04/13 01:08:15;;;;;;;27.42;13.32;;;;;;;3.94;66.19;101308.72;5029099;28;20061;-57
2022/04/13 01:10:42;;;;;;;30.05;13.77;;;;;;;3.89;66.33;101305.16;5023187;28;20482;-58
2022/04/13 01:13:08;;;;;;;30.88;14.43;;;;;;;3.88;66.44;101303.41;5031413;28;20408;-56
2022/04/13 01:15:34;;;;;;;26.33;13.27;;;;;;;3.84;66.37;101307.66;5031174;28;20060;-56
2022/04/13 01:17:59;;;;;;;32.60;16.05;;;;;;;3.70;66.86;101307.38;5029857;28;20359;-58
2022/04/13 01:20:25;;;;;;;40.92;17.05;;;;;;;3.61;67.03;101307.19;5032992;28;20068;-56
2022/04/13 01:22:51;;;;;;;32.20;15.07;;;;;;;3.59;66.83;101301.09;5030468;28;20034;-58
2022/04/13 01:25:16;;;;;;;30.23;14.18;;;;;;;3.59;66.64;101303.69;5024724;28;20033;-57
2022/04/13 01:27:41;;;;;;;34.95;17.20;;;;;;;3.58;66.36;101296.72;5025992;28;20064;-57
2022/04/13 01:30:09;;;;;;;36.00;17.60;;;;;;;3.49;67.19;101304.31;5025967;28;20539;-57
2022/04/13 01:32:35;;;;;;;35.70;16.63;;;;;;;3.44;67.46;101300.75;5025686;28;20031;-56
2022/04/13 01:35:01;;;;;;;30.80;14.88;;;;;;;3.41;67.63;101309.34;5035025;28;20469;-57
2022/04/13 01:37:26;;;;;;;39.10;17.55;;;;;;;3.45;67.64;101305.09;5025957;28;20109;-57
2022/04/13 01:39:51;;;;;;;36.17;17.10;;;;;;;3.46;67.36;101312.03;5030137;28;20038;-56
2022/04/13 01:42:18;;;;;;;27.67;14.55;;;;;;;3.34;68.09;101320.44;5032646;28;20103;-57
2022/04/13 01:44:45;;;;;;;26.77;13.98;;;;;;;3.35;68.13;101305.72;5034543;28;20049;-57
2022/04/13 01:47:10;;;;;;;32.72;15.57;;;;;;;3.37;68.35;101314.44;5026054;28;20038;-57
2022/04/13 01:49:37;;;;;;;29.88;15.60;;;;;;;3.39;68.57;101318.84;5023721;28;20045;-58
2022/04/13 01:52:05;;;;;;;32.38;16.88;;;;;;;3.33;68.63;101317.81;5028857;28;20063;-57
2022/04/13 01:54:30;;;;;;;36.08;18.25;;;;;;;3.30;68.84;101329.00;5029718;28;20107;-58
2022/04/13 01:56:57;;;;;;;32.97;16.42;;;;;;;3.26;69.08;101326.31;5031295;28;20473;-58
2022/04/13 01:59:22;;;;;;;34.08;16.77;;;;;;;3.24;68.95;101336.66;5034979;28;20091;-58
2022/04/13 02:01:48;;;;;;;28.83;14.02;;;;;;;3.28;68.93;101337.63;5030565;28;20045;-58
2022/04/13 02:04:18;;;;;;;28.10;14.73;;;;;;;3.32;68.51;101347.25;5017661;28;20041;-58
2022/04/13 02:06:44;;;;;;;30.98;14.23;;;;;;;3.37;68.49;101350.81;5027795;28;20400;-58
2022/04/13 02:09:09;;;;;;;29.20;13.23;;;;;;;3.39;68.39;101352.63;5023298;28;20037;-58
2022/04/13 02:11:35;;;;;;;33.90;15.45;;;;;;;3.42;68.58;101356.97;5018519;28;20493;-58
2022/04/13 02:14:00;;;;;;;35.40;15.57;;;;;;;3.38;68.33;101356.03;5034868;28;20069;-59
2022/04/13 02:16:26;;;;;;;31.38;14.05;;;;;;;3.37;68.80;101351.69;5017010;28;20481;-58
2022/04/13 02:18:51;;;;;;;32.35;15.60;;;;;;;3.38;68.76;101357.75;5015780;28;20034;-57
2022/04/13 02:21:16;;;;;;;29.25;14.65;;;;;;;3.38;68.74;101355.16;5023864;28;20048;-57
2022/04/13 02:23:42;;;;;;;31.25;14.23;;;;;;;3.31;68.98;101358.44;5034756;28;20030;-58
2022/04/13 02:26:08;;;;;;;25.20;12.43;;;;;;;3.25;69.14;101358.31;5029103;28;20465;-58
2022/04/13 02:28:33;;;;;;;29.17;11.55;;;;;;;3.25;69.38;101355.72;5020804;28;20116;-58
2022/04/13 02:30:59;;;;;;;24.00;12.05;;;;;;;3.27;69.06;101356.63;5007045;28;20042;-58
2022/04/13 02:33:25;;;;;;;28.77;13.45;;;;;;;3.22;69.29;101362.59;5017131;28;20061;-58
2022/04/13 02:35:50;;;;;;;25.92;12.43;;;;;;;3.17;69.26;101356.41;5026110;28;20030;-58
2022/04/13 02:38:16;;;;;;;24.23;10.80;;;;;;;3.18;69.16;101355.56;5028429;28;20049;-58
2022/04/13 02:40:43;;;;;;;24.98;11.10;;;;;;;3.18;69.05;101355.56;5029290;28;20060;-58
2022/04/13 02:43:08;;;;;;;28.40;12.93;;;;;;;3.18;68.80;101350.38;5024860;28;20037;-58
2022/04/13 02:45:35;;;;;;;25.55;12.45;;;;;;;3.10;68.97;101346.72;5032038;28;20096;-58
2022/04/13 02:48:00;;;;;;;27.65;12.73;;;;;;;3.09;69.05;101350.16;5032753;28;20116;-58
2022/04/13 02:50:26;;;;;;;23.50;11.57;;;;;;;3.04;68.58;101340.50;5021687;28;20125;-59
2022/04/13 02:52:54;;;;;;;23.83;11.55;;;;;;;3.02;68.98;101337.84;5020657;28;20497;-59
2022/04/13 02:55:20;;;;;;;24.20;12.23;;;;;;;2.91;69.17;101353.19;5014493;28;20030;-58
2022/04/13 02:57:45;;;;;;;25.02;11.55;;;;;;;2.86;69.38;101343.50;5020039;28;20760;-58
2022/04/13 03:00:11;;;;;;;22.27;10.82;;;;;;;2.83;69.58;101341.75;5024036;28;20378;-59
2022/04/13 03:02:39;;;;;;;21.40;10.88;;;;;;;2.82;69.72;101350.34;5024354;28;20037;-58
2022/04/13 03:05:05;;;;;;;19.58;10.57;;;;;;;2.77;69.84;101348.47;5030409;28;20444;-57
2022/04/13 03:07:32;;;;;;;27.70;12.93;;;;;;;2.75;69.98;101347.56;5015595;28;20033;-57
2022/04/13 03:09:59;;;;;;;19.20;8.45;;;;;;;2.83;69.87;101340.84;5026844;28;20041;-56
2022/04/13 03:12:24;;;;;;;24.30;11.68;;;;;;;2.84;69.80;101343.50;5030733;28;20108;-57
2022/04/13 03:14:53;;;;;;;26.40;11.25;;;;;;;2.86;69.63;101344.38;5033441;28;20453;-58
2022/04/13 03:17:18;;;;;;;20.25;10.95;;;;;;;2.84;70.29;101353.00;5016215;28;20084;-58
2022/04/13 03:19:44;;;;;;;20.77;10.10;;;;;;;2.92;69.59;101352.34;5033120;28;20468;-57
2022/04/13 03:22:09;;;;;;;20.95;10.10;;;;;;;2.83;70.29;101351.22;5028560;28;20033;-57
2022/04/13 03:24:35;;;;;;;17.95;9.77;;;;;;;2.80;70.36;101346.84;5028793;28;20037;-57
2022/04/13 03:27:01;;;;;;;19.50;9.55;;;;;;;2.78;70.56;101338.13;5020149;28;20108;-58
2022/04/13 03:29:26;;;;;;;19.80;10.27;;;;;;;2.80;70.57;101343.38;5020253;28;20338;-59
2022/04/13 03:31:52;;;;;;;21.33;9.65;;;;;;;2.81;70.40;101338.22;5018070;28;20046;-59
2022/04/13 03:34:20;;;;;;;23.92;11.02;;;;;;;2.84;70.23;101337.44;5030823;28;20124;-59
2022/04/13 03:36:47;;;;;;;18.98;9.43;;;;;;;2.82;70.07;101333.91;5033128;28;20041;-59
2022/04/13 03:39:13;;;;;;;18.63;9.70;;;;;;;2.86;69.61;101343.50;5026520;28;20065;-58
2022/04/13 03:41:39;;;;;;;20.88;10.00;;;;;;;2.88;69.79;101326.28;5020806;28;20480;-59
2022/04/13 03:44:04;;;;;;;23.25;11.00;;;;;;;2.87;69.66;101332.28;5025453;28;20064;-57
2022/04/13 03:46:31;;;;;;;20.15;9.10;;;;;;;2.88;69.60;101339.25;5024218;28;20041;-60
2022/04/13 03:48:56;;;;;;;20.73;10.55;;;;;;;2.89;69.59;101331.50;5019440;28;20097;-59
2022/04/13 03:51:23;;;;;;;30.70;11.70;;;;;;;2.85;69.47;101336.56;5021596;28;20076;-58
2022/04/13 03:53:48;;;;;;;26.23;10.65;;;;;;;2.84;69.42;101338.28;5026996;28;20121;-59
2022/04/13 03:56:13;;;;;;;21.25;10.15;;;;;;;2.85;69.47;101339.16;5025061;28;20120;-60
2022/04/13 03:58:40;;;;;;;25.95;10.68;;;;;;;2.92;69.09;101343.69;5030058;28;20033;-59
2022/04/13 04:01:07;;;;;;;22.13;9.77;;;;;;;2.91;69.12;101345.41;5019002;28;21732;-59
2022/04/13 04:03:34;;;;;;;27.23;10.73;;;;;;;2.89;68.88;101347.06;5027583;28;20072;-59
2022/04/13 04:05:59;;;;;;;30.52;10.73;;;;;;;2.93;68.73;101341.13;5020677;28;20035;-59
2022/04/13 04:08:26;;;;;;;20.20;9.75;;;;;;;3.00;68.25;101342.16;5028056;28;20120;-59
2022/04/13 04:10:52;;;;;;;26.10;12.18;;;;;;;3.01;68.65;101345.63;5033016;28;20046;-59
2022/04/13 04:13:18;;;;;;;23.38;11.65;;;;;;;3.06;68.18;101359.59;5021551;28;20413;-58
2022/04/13 04:15:43;;;;;;;25.23;11.40;;;;;;;3.07;68.17;101354.44;5033240;28;20056;-60
2022/04/13 04:18:08;;;;;;;20.98;9.80;;;;;;;3.11;68.25;101352.78;5035615;28;20535;-59
2022/04/13 04:20:34;;;;;;;23.50;10.73;;;;;;;3.20;68.18;101353.91;5036092;28;20040;-58
2022/04/13 04:23:00;;;;;;;14.23;8.60;;;;;;;3.25;68.26;101355.72;5029893;28;20038;-59
2022/04/13 04:25:25;;;;;;;34.35;15.95;;;;;;;3.19;68.80;101357.34;5032929;28;20037;-59
2022/04/13 04:27:50;;;;;;;16.92;9.57;;;;;;;3.33;68.21;101351.59;5037359;28;20040;-58
2022/04/13 04:30:16;;;;;;;23.25;11.32;;;;;;;3.42;68.03;101360.47;5023996;28;20037;-57
2022/04/13 04:32:41;;;;;;;19.83;10.77;;;;;;;3.58;67.77;101360.81;5037211;28;20037;-58
2022/04/13 04:35:08;;;;;;;22.98;9.50;;;;;;;3.74;67.12;101364.63;5034919;28;20037;-59
2022/04/13 04:37:33;;;;;;;17.90;9.18;;;;;;;3.78;66.79;101369.91;5036017;28;20029;-60
2022/04/13 04:39:59;;;;;;;24.40;10.80;;;;;;;3.79;66.85;101363.91;5028207;28;20366;-59
2022/04/13 04:42:25;;;;;;;20.63;11.48;;;;;;;3.84;67.03;101369.19;5034765;28;20550;-58
2022/04/13 04:44:58;;;;;;;27.02;12.85;;;;;;;3.96;66.76;101369.44;5019432;28;20041;-58
2022/04/13 04:47:24;;;;;;;24.17;14.18;;;;;;;4.14;66.39;101376.75;5028261;28;20064;-58
2022/04/13 04:49:49;;;;;;;26.05;13.10;;;;;;;4.31;65.79;101379.69;5027357;28;20049;-59
2022/04/13 04:52:15;;;;;;;30.23;13.57;;;;;;;4.49;65.24;101377.44;5015755;28;20042;-58
2022/04/13 04:54:40;;;;;;;29.80;14.00;;;;;;;4.66;64.74;101376.03;5022079;28;20095;-59
2022/04/13 04:57:06;;;;;;;20.10;10.13;;;;;;;4.60;65.47;101386.34;5031418;28;20037;-58
2022/04/13 04:59:31;;;;;;;16.73;9.93;;;;;;;4.58;66.13;101385.41;5029788;28;20469;-59
2022/04/13 05:01:57;;;;;;;19.35;10.13;;;;;;;4.68;65.92;101383.88;5023634;28;20109;-59
2022/04/13 05:04:22;;;;;;;20.73;8.95;;;;;;;4.80;65.47;101391.91;5031945;28;20064;-59
2022/04/13 05:06:48;;;;;;;28.08;11.48;;;;;;;4.92;65.27;101391.25;5034975;28;20095;-59
2022/04/13 05:09:17;;;;;;;22.73;13.13;;;;;;;4.91;65.38;101392.09;5033239;28;20469;-60
2022/04/13 05:11:43;;;;;;;24.70;11.80;;;;;;;5.08;64.77;101395.00;5024401;28;20060;-60
2022/04/13 05:14:08;;;;;;;24.35;11.57;;;;;;;5.24;64.59;101396.13;5031327;28;20037;-60
2022/04/13 05:16:34;;;;;;;22.13;11.30;;;;;;;5.41;64.01;101400.75;5032298;28;20070;-59
2022/04/13 05:19:00;;;;;;;23.85;11.35;;;;;;;5.59;63.69;101402.78;5032276;28;20117;-58
2022/04/13 05:21:25;;;;;;;24.60;12.00;;;;;;;5.75;63.53;101400.41;5030904;28;20450;-60
2022/04/13 05:23:51;;;;;;;21.05;10.25;;;;;;;5.87;63.09;101396.22;5033039;28;20037;-60
2022/04/13 05:26:18;;;;;;;18.83;10.20;;;;;;;5.96;63.13;101400.72;5022926;28;20037;-58
2022/04/13 05:28:45;;;;;;;24.05;13.02;;;;;;;6.03;63.13;101396.47;5025447;28;20046;-59
2022/04/13 05:31:11;;;;;;;33.58;16.48;;;;;;;6.11;63.17;101394.81;5015282;28;20616;-59
2022/04/13 05:33:36;;;;;;;28.02;14.65;;;;;;;6.28;62.61;101392.41;5017127;28;20072;-58
2022/04/13 05:36:03;;;;;;;31.67;18.40;;;;;;;6.40;62.45;101405.63;5030006;28;20049;-58
2022/04/13 05:38:29;;;;;;;31.48;18.38;;;;;;;6.58;62.00;101408.44;5015937;28;20049;-58
2022/04/13 05:40:54;;;;;;;38.95;20.33;;;;;;;6.73;61.66;101399.00;5019784;28;20058;-58
2022/04/13 05:43:20;;;;;;;48.58;25.90;;;;;;;6.85;61.44;101402.59;5018692;28;20504;-58
2022/04/13 05:45:46;;;;;;;46.28;25.08;;;;;;;7.02;60.98;101402.78;5022280;28;20044;-58
2022/04/13 05:48:11;;;;;;;49.13;22.42;;;;;;;7.21;60.45;101397.72;5023952;28;20605;-58
2022/04/13 05:50:37;;;;;;;36.40;20.17;;;;;;;7.44;59.99;101404.00;5022502;28;20029;-59
2022/04/13 05:53:02;;;;;;;38.13;21.20;;;;;;;7.71;59.22;101402.44;5023468;28;20041;-58
2022/04/13 05:55:28;;;;;;;34.38;17.88;;;;;;;7.90;58.67;101394.72;5028055;28;20408;-59
2022/04/13 05:57:53;;;;;;;28.90;16.13;;;;;;;8.09;57.92;101392.16;5026403;28;20136;-58
2022/04/13 06:00:19;;;;;;;22.73;12.98;;;;;;;8.29;56.94;101398.38;5030831;28;20026;-59
2022/04/13 06:02:44;;;;;;;22.00;12.10;;;;;;;8.45;56.33;101394.09;5024783;28;20464;-59
2022/04/13 06:05:11;;;;;;;27.00;13.32;;;;;;;8.56;55.78;101387.16;5022349;28;20037;-59
2022/04/13 06:07:37;;;;;;;20.88;11.98;;;;;;;8.80;55.39;101386.31;5021323;28;20088;-59
2022/04/13 06:10:04;;;;;;;24.52;11.52;;;;;;;9.08;54.87;101392.47;5024521;28;20482;-59
2022/04/13 06:12:29;;;;;;;22.33;13.38;;;;;;;9.39;53.58;101397.72;5015636;28;20038;-58
2022/04/13 06:15:06;;;;;;;30.08;18.10;;;;;;;9.69;52.19;101414.28;5022949;28;20155;-59
2022/04/13 06:17:32;;;;;;;28.88;20.92;;;;;;;9.96;52.12;101411.63;5025098;28;20893;-59
2022/04/13 06:19:57;;;;;;;36.40;27.77;;;;;;;10.09;51.46;101423.84;5034934;28;20139;-59
2022/04/13 06:22:23;;;;;;;32.92;22.80;;;;;;;10.26;51.07;101428.19;5031114;28;20068;-58
2022/04/13 06:24:51;;;;;;;32.00;21.25;;;;;;;10.44;50.32;101430.72;5019769;28;20038;-59
2022/04/13 06:27:18;;;;;;;27.73;16.40;;;;;;;10.63;49.86;101434.16;5018110;28;20037;-59
2022/04/13 06:29:43;;;;;;;20.85;13.80;;;;;;;10.77;49.35;101424.44;5025636;28;20029;-59
2022/04/13 06:32:09;;;;;;;19.55;11.45;;;;;;;10.88;48.79;101431.38;5020508;28;20496;-59
2022/04/13 06:34:34;;;;;;;17.75;10.13;;;;;;;11.01;48.24;101433.94;5024936;28;20072;-59
2022/04/13 06:37:00;;;;;;;16.30;9.00;;;;;;;11.11;47.92;101418.97;5024680;28;20116;-58
2022/04/13 06:39:25;;;;;;;17.55;8.68;;;;;;;11.32;47.25;101431.06;5026600;28;20029;-59
2022/04/13 06:41:50;;;;;;;18.77;9.50;;;;;;;11.57;46.76;101427.34;5023800;28;20118;-59
2022/04/13 06:44:16;;;;;;;17.10;9.60;;;;;;;11.68;46.31;101421.09;5019816;28;20037;-59
2022/04/13 06:46:41;;;;;;;22.00;12.73;;;;;;;11.74;45.84;101416.66;5025869;28;20110;-58
2022/04/13 06:49:07;;;;;;;21.98;11.88;;;;;;;11.80;45.67;101405.19;5022124;28;20045;-58
2022/04/13 06:51:33;;;;;;;22.33;12.75;;;;;;;11.87;45.36;101401.63;5027693;28;20096;-59
2022/04/13 06:53:58;;;;;;;18.73;10.75;;;;;;;11.96;45.12;101400.66;5019367;28;20037;-59
2022/04/13 06:56:24;;;;;;;15.52;9.27;;;;;;;12.06;44.70;101399.69;5023307;28;20045;-59
2022/04/13 06:58:49;;;;;;;15.75;8.77;;;;;;;12.08;44.73;101389.97;5021496;28;20069;-59
2022/04/13 07:01:15;;;;;;;15.10;7.90;;;;;;;12.16;44.50;101389.88;5022248;28;20026;-59
2022/04/13 07:03:40;;;;;;;14.60;8.05;;;;;;;12.21;44.08;101393.34;5017857;28;20037;-58
2022/04/13 07:06:05;;;;;;;15.02;8.43;;;;;;;12.22;44.15;101401.22;5014582;28;20153;-59
2022/04/13 07:08:31;;;;;;;17.25;8.95;;;;;;;12.14;43.83;101399.59;5013143;28;20414;-59
2022/04/13 07:10:57;;;;;;;13.65;7.85;;;;;;;12.21;44.08;101398.63;5033682;28;20489;-59
2022/04/13 07:13:23;;;;;;;16.35;7.80;;;;;;;12.20;43.89;101408.28;5033593;28;20366;-58
2022/04/13 07:15:50;;;;;;;12.90;7.35;;;;;;;12.28;43.81;101413.44;5032823;28;20033;-59
2022/04/13 07:18:15;;;;;;;16.08;7.55;;;;;;;12.30;43.81;101422.22;5033885;28;20144;-58
2022/04/13 07:20:41;;;;;;;15.20;8.85;;;;;;;12.37;43.61;101428.28;5033665;28;20112;-59
2022/04/13 07:23:06;;;;;;;15.50;7.57;;;;;;;12.42;43.50;101429.09;5020268;28;20040;-58
2022/04/13 07:25:32;;;;;;;17.00;7.72;;;;;;;12.51;43.17;101427.22;5033643;28;20041;-58
2022/04/13 07:27:57;;;;;;;16.73;7.10;;;;;;;12.62;43.01;101424.44;5033468;28;20068;-59
2022/04/13 07:30:23;;;;;;;13.70;7.90;;;;;;;12.73;42.63;101421.66;5025005;28;20087;-59
2022/04/13 07:32:55;;;;;;;12.20;6.78;;;;;;;12.76;42.24;101419.84;5025335;28;21574;-58
2022/04/13 07:35:20;;;;;;;15.05;7.05;;;;;;;12.87;42.52;101408.28;5030984;28;20037;-58
2022/04/13 07:37:46;;;;;;;14.23;7.30;;;;;;;12.99;42.07;101418.63;5018349;28;20034;-58
2022/04/13 07:40:13;;;;;;;14.82;6.80;;;;;;;13.07;41.99;101409.69;5013493;28;20090;-58
2022/04/13 07:42:39;;;;;;;11.23;6.00;;;;;;;13.17;41.75;101418.38;5028636;28;20037;-58
2022/04/13 07:45:06;;;;;;;11.93;6.00;;;;;;;13.26;41.54;101418.25;5025794;28;20057;-59
2022/04/13 07:47:32;;;;;;;10.82;5.95;;;;;;;13.37;41.13;101415.44;5020625;28;20045;-59
2022/04/13 07:49:58;;;;;;;13.32;6.60;;;;;;;13.48;40.95;101420.50;5026374;28;20169;-58
2022/04/13 07:52:23;;;;;;;12.40;6.63;;;;;;;13.61;40.70;101421.19;5016598;28;20042;-59
2022/04/13 07:54:49;;;;;;;15.13;7.13;;;;;;;13.68;40.77;101418.38;5021922;28;20092;-59
2022/04/13 07:57:15;;;;;;;14.80;8.93;;;;;;;13.77;40.45;101420.88;5027772;28;20049;-59
2022/04/13 07:59:41;;;;;;;16.45;10.88;;;;;;;13.89;40.12;101411.00;5022348;28;21280;-58
2022/04/13 08:02:07;;;;;;;23.77;12.40;;;;;;;14.02;39.99;101416.00;5021395;28;20087;-58
2022/04/13 08:04:36;;;;;;;21.42;12.15;;;;;;;14.13;39.56;101421.09;5019285;28;20045;-58
2022/04/13 08:07:02;;;;;;;21.23;11.48;;;;;;;14.25;39.41;101423.47;5018232;28;20038;-58
2022/04/13 08:09:27;;;;;;;16.40;10.43;;;;;;;14.35;38.95;101424.16;5024089;28;20465;-58
2022/04/13 08:11:53;;;;;;;14.85;8.65;;;;;;;14.37;38.89;101426.78;5024058;28;20480;-58
2022/04/13 08:14:20;;;;;;;12.82;7.30;;;;;;;14.45;38.77;101433.66;5022833;28;20041;-60
2022/04/13 08:16:45;;;;;;;17.10;8.70;;;;;;;14.55;38.59;101429.03;5018149;28;20087;-58
2022/04/13 08:19:10;;;;;;;14.77;7.75;;;;;;;14.58;38.45;101429.00;5023722;28;20041;-59
2022/04/13 08:21:38;;;;;;;14.75;8.40;;;;;;;14.67;38.32;101423.50;5021772;28;20033;-58
2022/04/13 08:24:04;;;;;;;14.23;7.85;;;;;;;14.76;38.20;101430.34;5022009;28;20176;-59
2022/04/13 08:26:30;;;;;;;12.65;7.35;;;;;;;14.86;38.08;101423.97;5023546;28;21391;-58
2022/04/13 08:28:55;;;;;;;16.25;8.65;;;;;;;14.98;37.85;101425.44;5021010;28;20053;-58
2022/04/13 08:31:20;;;;;;;13.50;7.63;;;;;;;15.07;37.54;101422.59;5022323;28;20041;-58
2022/04/13 08:33:46;;;;;;;11.27;6.85;;;;;;;15.20;37.59;101407.25;5022055;28;20036;-58
2022/04/13 08:36:12;;;;;;;12.95;7.50;;;;;;;15.35;37.52;101409.53;5021329;28;20034;-58
2022/04/13 08:38:38;;;;;;;13.77;8.05;;;;;;;15.56;37.21;101417.84;5024611;28;20040;-59
2022/04/13 08:41:26;;;;;;;13.00;6.93;;;;;;;15.76;36.62;101416.47;5022110;28;20049;-59
2022/04/13 08:43:56;;;;;;;11.70;6.75;;;;;;;15.76;36.52;101410.31;5021362;28;20400;-59
2022/04/13 08:46:25;;;;;;;11.57;6.10;;;;;;;15.73;35.98;101411.25;5023695;28;21533;-58
2022/04/13 08:48:55;;;;;;;10.65;5.78;;;;;;;15.75;36.21;101404.09;5021402;28;20034;-58
2022/04/13 08:51:22;;;;;;;12.63;6.63;;;;;;;15.75;35.95;101411.19;5020565;28;20143;-58
2022/04/13 08:54:00;;;;;;;11.48;6.00;;;;;;;15.77;35.63;101414.69;5021191;28;20045;-58
2022/04/13 08:56:28;;;;;;;11.90;6.32;;;;;;;15.85;35.81;101414.47;5025516;28;20057;-59
2022/04/13 08:59:04;;;;;;;13.50;5.82;;;;;;;15.81;35.15;101405.75;5016154;28;20072;-59
2022/04/13 09:02:00;;;;;;;11.45;5.80;;;;;;;15.84;34.15;101403.00;5020474;28;20584;-58
2022/04/13 09:04:28;;;;;;;9.55;5.55;;;;;;;15.92;35.61;101400.16;5027516;28;20529;-58
2022/04/13 09:06:58;;;;;;;12.23;6.00;;;;;;;15.92;34.75;101406.31;5023658;28;20033;-58
2022/04/13 09:09:39;;;;;;;8.52;5.22;;;;;;;16.06;34.13;101397.09;5027016;28;20120;-58
2022/04/13 09:12:07;;;;;;;11.45;6.35;;;;;;;16.15;34.99;101391.53;5024051;28;20447;-59
2022/04/13 09:14:35;;;;;;;11.00;5.97;;;;;;;16.19;34.86;101396.69;5024149;28;20080;-58
2022/04/13 09:17:02;;;;;;;9.75;5.95;;;;;;;16.28;34.75;101400.91;5024846;28;20113;-59
2022/04/13 09:19:27;;;;;;;12.95;6.72;;;;;;;16.27;34.51;101394.69;5023681;28;20033;-59
2022/04/13 09:21:55;;;;;;;11.50;6.43;;;;;;;16.35;34.30;101399.78;5023551;28;20095;-59
2022/04/13 09:24:22;;;;;;;10.70;6.30;;;;;;;16.31;33.83;101398.13;5027838;28;20037;-59
2022/04/13 09:26:48;;;;;;;11.25;5.97;;;;;;;16.32;33.67;101399.88;5033454;28;20479;-59
2022/04/13 09:29:14;;;;;;;8.50;4.72;;;;;;;16.27;33.29;101397.34;5030186;28;20032;-59
2022/04/13 09:31:39;;;;;;;9.18;4.65;;;;;;;16.31;32.64;101398.13;5021650;28;20124;-59
2022/04/13 09:34:05;;;;;;;8.27;3.40;;;;;;;16.32;32.98;101388.38;5020563;28;20100;-59
2022/04/13 09:36:31;;;;;;;6.40;3.78;;;;;;;16.24;32.68;101383.34;5030212;28;20044;-59
2022/04/13 09:38:56;;;;;;;7.45;3.65;;;;;;;16.27;32.54;101385.88;5017459;28;20045;-59
2022/04/13 09:41:36;;;;;;;6.88;3.58;;;;;;;16.29;29.63;101392.00;5014343;28;20053;-58
2022/04/13 09:44:10;;;;;;;8.15;3.10;;;;;;;16.37;31.70;101392.66;5004903;28;20039;-59
2022/04/13 09:46:37;;;;;;;8.40;3.78;;;;;;;16.47;31.94;101393.25;5005227;28;20843;-59
2022/04/13 09:49:09;;;;;;;10.57;3.67;;;;;;;16.47;30.13;101386.16;5023519;28;20037;-59
2022/04/13 09:51:38;;;;;;;8.50;3.70;;;;;;;16.56;30.83;101392.13;5018299;28;20041;-59
2022/04/13 09:54:09;;;;;;;6.07;3.80;;;;;;;16.51;29.61;101385.13;5020022;28;20049;-59
2022/04/13 09:56:43;;;;;;;6.85;3.95;;;;;;;16.67;30.14;101374.91;5017503;28;20045;-58
2022/04/13 09:59:10;;;;;;;8.07;4.32;;;;;;;16.77;30.09;101378.22;5030745;28;20026;-58
2022/04/13 10:01:36;;;;;;;7.10;4.00;;;;;;;16.74;30.43;101362.38;5031266;28;20037;-58
2022/04/13 10:04:03;;;;;;;9.57;4.40;;;;;;;16.71;30.29;101349.16;5022866;28;20508;-58
2022/04/13 10:06:35;;;;;;;9.15;4.20;;;;;;;16.64;30.13;101350.31;5012235;28;20463;-58
2022/04/13 10:09:06;;;;;;;8.40;4.30;;;;;;;16.61;29.17;101351.25;5033446;28;20038;-57
2022/04/13 10:11:31;;;;;;;10.73;4.47;;;;;;;16.60;29.96;101353.97;5016485;28;20041;-59
2022/04/13 10:14:09;;;;;;;6.10;3.97;;;;;;;16.87;29.01;101352.22;5019685;28;20030;-58
2022/04/13 10:16:35;;;;;;;10.18;4.35;;;;;;;17.02;29.42;101350.88;5020291;28;20044;-59
2022/04/13 10:19:03;;;;;;;7.85;4.15;;;;;;;17.08;28.59;101351.53;5019351;28;20041;-59
2022/04/13 10:21:49;;;;;;;6.82;4.32;;;;;;;17.19;27.81;101346.72;5022102;28;20030;-59
2022/04/13 10:24:37;;;;;;;7.78;4.15;;;;;;;17.20;27.65;101345.81;5024719;28;20113;-59
2022/04/13 10:27:08;;;;;;;8.55;4.57;;;;;;;17.21;28.78;101341.38;5024569;28;20117;-59
2022/04/13 10:29:35;;;;;;;9.65;4.85;;;;;;;17.32;29.01;101335.72;5022154;28;20481;-59
2022/04/13 10:32:03;;;;;;;8.15;4.32;;;;;;;17.23;28.95;101328.91;5022589;28;20369;-58
2022/04/13 10:34:34;;;;;;;10.00;4.20;;;;;;;17.21;28.32;101330.75;5022140;28;20029;-58
2022/04/13 10:37:00;;;;;;;8.20;4.40;;;;;;;17.12;29.27;101333.72;5025896;28;20489;-58
2022/04/13 10:39:25;;;;;;;8.95;4.20;;;;;;;17.07;29.21;101333.84;5033850;28;20065;-59
2022/04/13 10:41:51;;;;;;;7.88;4.22;;;;;;;17.04;28.99;101333.13;5031443;28;20705;-58
2022/04/13 10:44:29;;;;;;;10.20;4.18;;;;;;;17.12;28.81;101333.72;5026385;28;20469;-58
2022/04/13 10:46:57;;;;;;;7.80;4.00;;;;;;;17.19;29.29;101335.22;5026589;28;20116;-58
2022/04/13 10:49:29;;;;;;;7.43;4.35;;;;;;;17.08;29.08;101343.56;5020770;28;20064;-58
2022/04/13 10:52:01;;;;;;;8.40;4.15;;;;;;;16.95;29.37;101337.78;5020165;28;20041;-58
2022/04/13 10:54:34;;;;;;;9.98;4.75;;;;;;;16.99;29.49;101331.47;5031036;28;20037;-58
2022/04/13 10:57:00;;;;;;;11.30;6.65;;;;;;;17.25;29.09;101335.03;5029257;28;20021;-59
2022/04/13 10:59:32;;;;;;;12.95;6.40;;;;;;;17.47;28.42;101325.41;5029796;28;20041;-58
2022/04/13 11:02:16;;;;;;;8.30;4.93;;;;;;;17.68;27.40;101325.56;5024841;28;20538;-59
2022/04/13 11:04:42;;;;;;;12.45;6.68;;;;;;;17.74;28.33;101327.97;5032185;28;20033;-59
2022/04/13 11:07:08;;;;;;;22.13;13.02;;;;;;;17.76;28.16;101320.00;5031337;28;20175;-58
2022/04/13 11:09:39;;;;;;;9.40;6.50;;;;;;;17.86;27.69;101327.56;5031739;28;20033;-59
2022/04/13 11:12:07;;;;;;;39.38;23.88;;;;;;;17.94;27.66;101314.00;5030867;28;20477;-59
2022/04/13 11:14:52;;;;;;;50.20;31.08;;;;;;;17.96;26.68;101315.69;5018996;28;20485;-59
2022/04/13 11:17:20;;;;;;;40.03;26.27;;;;;;;18.03;27.63;101313.63;5024254;28;20037;-58